createdAt,value
2018-11-06T00:00:47.556Z,6.82
2018-11-06T00:01:47.545Z,6.65
2018-11-06T00:02:47.526Z,6.76
2018-11-06T00:03:47.558Z,6.72
2018-11-06T00:04:47.531Z,6.78
2018-11-06T00:05:47.489Z,6.81
2018-11-06T00:06:47.484Z,6.73
2018-11-06T00:07:47.485Z,6.61
2018-11-06T00:08:47.500Z,6.65
2018-11-06T00:09:47.462Z,6.65
2018-11-06T00:10:47.442Z,6.65
2018-11-06T00:11:47.430Z,6.82
2018-11-06T00:12:47.421Z,6.78
2018-11-06T00:13:47.471Z,6.76
2018-11-06T00:14:47.402Z,6.79
2018-11-06T00:15:47.398Z,6.75
2018-11-06T00:16:47.421Z,6.78
2018-11-06T00:17:47.367Z,6.78
2018-11-06T00:18:47.355Z,6.79
2018-11-06T00:19:47.365Z,6.79
2018-11-06T00:20:47.324Z,6.71
2018-11-06T00:21:47.354Z,6.81
2018-11-06T00:22:47.316Z,7.05
2018-11-06T00:23:47.299Z,6.93
2018-11-06T00:24:47.290Z,6.87
2018-11-06T00:25:47.285Z,6.99
2018-11-06T00:26:47.318Z,7.00
2018-11-06T00:27:47.275Z,7.05
2018-11-06T00:28:47.235Z,6.93
2018-11-06T00:29:47.238Z,6.86
2018-11-06T00:30:47.220Z,6.79
2018-11-06T00:31:47.251Z,6.82
2018-11-06T00:32:47.215Z,6.94
2018-11-06T00:33:47.204Z,6.99
2018-11-06T00:34:47.171Z,6.93
2018-11-06T00:35:47.194Z,6.93
2018-11-06T00:36:47.184Z,6.89
2018-11-06T00:37:47.155Z,6.97
2018-11-06T00:38:47.137Z,7.12
2018-11-06T00:39:47.128Z,7.11
2018-11-06T00:40:47.163Z,7.04
2018-11-06T00:41:47.103Z,7.00
2018-11-06T00:42:47.083Z,6.91
2018-11-06T00:43:47.082Z,6.90
2018-11-06T00:44:47.065Z,6.90
2018-11-06T00:45:47.052Z,6.94
2018-11-06T00:46:47.091Z,6.90
2018-11-06T00:47:47.058Z,7.05
2018-11-06T00:48:47.037Z,7.01
2018-11-06T00:49:47.010Z,7.12
2018-11-06T00:50:47.000Z,7.08
2018-11-06T00:51:47.024Z,7.32
2018-11-06T00:52:47.000Z,7.21
2018-11-06T00:53:46.987Z,7.39
2018-11-06T00:54:46.966Z,7.45
2018-11-06T00:55:46.940Z,7.57
2018-11-06T00:56:46.971Z,7.45
2018-11-06T00:57:46.934Z,7.44
2018-11-06T00:58:46.922Z,7.36
2018-11-06T00:59:46.898Z,7.34
2018-11-06T01:00:46.893Z,7.37
2018-11-06T01:01:46.914Z,7.26
2018-11-06T01:02:46.914Z,7.18
2018-11-06T01:03:46.865Z,7.27
2018-11-06T01:04:46.841Z,7.33
2018-11-06T01:05:46.838Z,7.36
2018-11-06T01:06:46.820Z,7.37
2018-11-06T01:07:47.044Z,7.34
2018-11-06T01:08:46.850Z,7.51
2018-11-06T01:09:46.816Z,7.55
2018-11-06T01:10:46.778Z,7.45
2018-11-06T01:11:46.763Z,7.44
2018-11-06T01:12:46.772Z,7.21
2018-11-06T01:13:46.781Z,7.18
2018-11-06T01:14:46.759Z,7.15
2018-11-06T01:15:46.733Z,7.19
2018-11-06T01:16:46.727Z,7.14
2018-11-06T01:17:46.705Z,7.04
2018-11-06T01:18:46.735Z,6.97
2018-11-06T01:19:46.721Z,6.72
2018-11-06T01:20:46.692Z,6.81
2018-11-06T01:21:46.670Z,6.78
2018-11-06T01:22:46.647Z,6.79
2018-11-06T01:23:46.667Z,6.82
2018-11-06T01:24:46.632Z,6.69
2018-11-06T01:25:46.671Z,6.55
2018-11-06T01:26:46.626Z,6.57
2018-11-06T01:27:46.600Z,6.73
2018-11-06T01:28:46.585Z,6.69
2018-11-06T01:29:46.566Z,6.68
2018-11-06T01:30:46.594Z,6.69
2018-11-06T01:31:46.607Z,6.68
2018-11-06T01:32:46.553Z,6.68
2018-11-06T01:33:46.539Z,6.94
2018-11-06T01:34:46.524Z,7.01
2018-11-06T01:35:46.550Z,7.12
2018-11-06T01:36:46.500Z,6.99
2018-11-06T01:37:46.494Z,6.76
2018-11-06T01:38:46.471Z,6.86
2018-11-06T01:39:46.477Z,6.94
2018-11-06T01:40:46.484Z,6.93
2018-11-06T01:41:46.455Z,7.01
2018-11-06T01:42:46.428Z,7.04
2018-11-06T01:43:46.413Z,6.96
2018-11-06T01:44:46.414Z,6.79
2018-11-06T01:45:46.447Z,6.78
2018-11-06T01:46:46.392Z,6.79
2018-11-06T01:47:46.370Z,6.78
2018-11-06T01:48:46.359Z,6.86
2018-11-06T01:49:46.349Z,6.82
2018-11-06T01:50:46.376Z,6.79
2018-11-06T01:51:46.391Z,6.86
2018-11-06T01:52:46.340Z,6.96
2018-11-06T01:53:46.310Z,6.93
2018-11-06T01:54:46.302Z,6.79
2018-11-06T01:55:46.290Z,6.81
2018-11-06T01:56:46.318Z,6.81
2018-11-06T01:57:46.265Z,6.79
2018-11-06T01:58:46.258Z,6.65
2018-11-06T01:59:46.242Z,6.58
2018-11-06T02:00:46.225Z,6.51
2018-11-06T02:01:46.277Z,6.53
2018-11-06T02:02:46.218Z,6.53
2018-11-06T02:03:46.208Z,6.57
2018-11-06T02:04:46.195Z,6.54
2018-11-06T02:05:46.179Z,6.45
2018-11-06T02:06:46.207Z,6.46
2018-11-06T02:07:46.171Z,6.40
2018-11-06T02:08:46.189Z,6.39
2018-11-06T02:09:46.135Z,6.42
2018-11-06T02:10:46.136Z,6.54
2018-11-06T02:11:46.106Z,6.45
2018-11-06T02:12:46.117Z,6.43
2018-11-06T02:13:46.136Z,6.40
2018-11-06T02:14:46.082Z,6.30
2018-11-06T02:15:46.062Z,6.40
2018-11-06T02:16:46.059Z,6.57
2018-11-06T02:17:46.045Z,6.68
2018-11-06T02:18:46.044Z,6.75
2018-11-06T02:19:46.068Z,6.82
2018-11-06T02:20:46.009Z,6.97
2018-11-06T02:21:46.023Z,6.83
2018-11-06T02:22:45.990Z,6.83
2018-11-06T02:23:45.973Z,6.72
2018-11-06T02:24:46.006Z,7.04
2018-11-06T02:25:45.954Z,7.01
2018-11-06T02:26:45.953Z,6.82
2018-11-06T02:27:45.936Z,6.81
2018-11-06T02:28:45.929Z,6.82
2018-11-06T02:29:45.942Z,6.72
2018-11-06T02:30:45.916Z,6.83
2018-11-06T02:31:45.931Z,6.71
2018-11-06T02:32:45.882Z,6.72
2018-11-06T02:33:45.885Z,6.76
2018-11-06T02:34:45.911Z,6.72
2018-11-06T02:35:45.857Z,6.81
2018-11-06T02:36:45.838Z,6.72
2018-11-06T02:37:45.833Z,6.75
2018-11-06T02:38:45.813Z,6.79
2018-11-06T02:39:45.838Z,6.75
2018-11-06T02:40:45.802Z,6.72
2018-11-06T02:41:45.795Z,6.78
2018-11-06T02:42:45.786Z,6.76
2018-11-06T02:43:45.759Z,6.79
2018-11-06T02:44:45.789Z,6.87
2018-11-06T02:45:45.751Z,6.82
2018-11-06T02:46:45.724Z,6.76
2018-11-06T02:47:45.725Z,6.72
2018-11-06T02:48:45.720Z,6.69
2018-11-06T02:49:45.728Z,6.69
2018-11-06T02:50:45.689Z,6.65
2018-11-06T02:51:45.669Z,6.68
2018-11-06T02:52:45.660Z,6.90
2018-11-06T02:53:45.660Z,6.99
2018-11-06T02:54:45.689Z,6.86
2018-11-06T02:55:45.706Z,6.82
2018-11-06T02:56:45.633Z,6.73
2018-11-06T02:57:45.619Z,6.78
2018-11-06T02:58:45.601Z,6.82
2018-11-06T02:59:45.617Z,6.76
2018-11-06T03:00:45.613Z,6.73
2018-11-06T03:01:45.563Z,6.65
2018-11-06T03:02:45.563Z,6.68
2018-11-06T03:03:45.550Z,6.69
2018-11-06T03:04:45.541Z,6.69
2018-11-06T03:05:45.565Z,6.54
2018-11-06T03:06:45.509Z,6.57
2018-11-06T03:07:45.509Z,6.58
2018-11-06T03:08:45.488Z,6.54
2018-11-06T03:09:45.484Z,6.55
2018-11-06T03:10:45.515Z,6.48
2018-11-06T03:11:45.465Z,6.55
2018-11-06T03:12:45.507Z,6.57
2018-11-06T03:13:45.433Z,6.57
2018-11-06T03:14:45.422Z,6.71
2018-11-06T03:15:45.408Z,6.65
2018-11-06T03:16:45.512Z,6.79
2018-11-06T03:17:45.427Z,6.82
2018-11-06T03:18:45.725Z,6.94
2018-11-06T03:19:45.366Z,6.82
2018-11-06T03:20:45.350Z,6.81
2018-11-06T03:21:45.345Z,6.75
2018-11-06T03:22:45.380Z,6.64
2018-11-06T03:23:45.334Z,6.58
2018-11-06T03:24:45.321Z,6.75
2018-11-06T03:25:45.314Z,6.79
2018-11-06T03:26:45.373Z,6.96
2018-11-06T03:27:45.311Z,6.89
2018-11-06T03:28:45.279Z,6.82
2018-11-06T03:29:45.253Z,6.81
2018-11-06T03:30:45.241Z,6.83
2018-11-06T03:31:45.261Z,6.73
2018-11-06T03:32:45.256Z,7.01
2018-11-06T03:33:45.219Z,7.19
2018-11-06T03:34:45.198Z,7.14
2018-11-06T03:35:45.190Z,7.15
2018-11-06T03:36:45.183Z,7.11
2018-11-06T03:37:45.218Z,7.11
2018-11-06T03:38:45.169Z,6.97
2018-11-06T03:39:45.146Z,6.94
2018-11-06T03:40:45.133Z,6.90
2018-11-06T03:41:45.164Z,7.09
2018-11-06T03:42:45.115Z,6.94
2018-11-06T03:43:45.109Z,6.79
2018-11-06T03:44:45.092Z,7.11
2018-11-06T03:45:45.079Z,7.04
2018-11-06T03:46:45.113Z,6.83
2018-11-06T03:47:45.086Z,6.79
2018-11-06T03:48:45.046Z,6.72
2018-11-06T03:49:45.044Z,6.82
2018-11-06T03:50:45.026Z,6.71
2018-11-06T03:51:45.022Z,6.72
2018-11-06T03:52:45.004Z,6.55
2018-11-06T03:53:44.994Z,6.55
2018-11-06T03:54:44.986Z,6.55
2018-11-06T03:55:44.978Z,6.60
2018-11-06T03:56:44.963Z,6.55
2018-11-06T03:57:46.154Z,6.57
2018-11-06T03:58:44.940Z,6.55
2018-11-06T03:59:44.923Z,6.60
2018-11-06T04:00:44.975Z,6.54
2018-11-06T04:01:44.911Z,6.40
2018-11-06T04:02:44.895Z,6.45
2018-11-06T04:03:44.937Z,6.53
2018-11-06T04:04:44.874Z,6.43
2018-11-06T04:05:44.866Z,6.42
2018-11-06T04:06:44.884Z,6.38
2018-11-06T04:07:44.847Z,6.58
2018-11-06T04:08:44.860Z,6.53
2018-11-06T04:09:44.832Z,6.51
2018-11-06T04:10:44.811Z,6.53
2018-11-06T04:11:44.799Z,6.48
2018-11-06T04:12:44.801Z,6.45
2018-11-06T04:13:44.816Z,6.43
2018-11-06T04:14:44.763Z,6.53
2018-11-06T04:15:44.754Z,6.58
2018-11-06T04:16:44.745Z,6.58
2018-11-06T04:17:44.734Z,6.48
2018-11-06T04:18:44.758Z,6.57
2018-11-06T04:19:44.731Z,6.53
2018-11-06T04:20:44.709Z,6.43
2018-11-06T04:21:44.692Z,6.39
2018-11-06T04:22:44.683Z,6.46
2018-11-06T04:23:44.700Z,6.60
2018-11-06T04:24:44.671Z,6.57
2018-11-06T04:25:44.646Z,6.50
2018-11-06T04:26:44.644Z,6.53
2018-11-06T04:27:44.637Z,6.58
2018-11-06T04:28:44.661Z,6.55
2018-11-06T04:29:44.612Z,6.46
2018-11-06T04:30:44.607Z,6.50
2018-11-06T04:31:44.582Z,6.54
2018-11-06T04:32:44.583Z,6.58
2018-11-06T04:33:44.613Z,6.61
2018-11-06T04:34:44.551Z,6.55
2018-11-06T04:35:44.544Z,6.58
2018-11-06T04:36:44.541Z,6.54
2018-11-06T04:37:44.517Z,6.50
2018-11-06T04:38:44.556Z,6.63
2018-11-06T04:39:44.519Z,6.58
2018-11-06T04:40:44.481Z,6.58
2018-11-06T04:41:44.464Z,6.55
2018-11-06T04:42:44.472Z,6.51
2018-11-06T04:43:44.481Z,6.57
2018-11-06T04:44:44.497Z,6.58
2018-11-06T04:45:44.421Z,6.57
2018-11-06T04:46:44.668Z,6.53
2018-11-06T04:47:44.417Z,6.54
2018-11-06T04:48:44.442Z,6.50
2018-11-06T04:49:44.592Z,6.55
2018-11-06T04:50:44.376Z,6.71
2018-11-06T04:51:44.357Z,6.65
2018-11-06T04:52:44.360Z,6.60
2018-11-06T04:53:44.368Z,6.58
2018-11-06T04:54:44.350Z,6.48
2018-11-06T04:55:44.325Z,6.51
2018-11-06T04:56:44.305Z,6.46
2018-11-06T04:57:44.290Z,6.36
2018-11-06T04:58:44.333Z,6.43
2018-11-06T04:59:44.294Z,6.45
2018-11-06T05:00:44.262Z,6.43
2018-11-06T05:01:44.310Z,6.42
2018-11-06T05:02:44.261Z,6.45
2018-11-06T05:03:44.227Z,6.42
2018-11-06T05:04:44.218Z,6.45
2018-11-06T05:05:44.225Z,6.40
2018-11-06T05:06:44.289Z,6.51
2018-11-06T05:07:44.186Z,6.57
2018-11-06T05:08:44.169Z,6.55
2018-11-06T05:09:44.170Z,6.71
2018-11-06T05:10:44.156Z,6.68
2018-11-06T05:11:44.190Z,6.78
2018-11-06T05:12:44.141Z,6.69
2018-11-06T05:13:44.183Z,6.64
2018-11-06T05:14:44.130Z,6.71
2018-11-06T05:15:44.117Z,6.75
2018-11-06T05:16:44.104Z,6.75
2018-11-06T05:17:44.139Z,6.82
2018-11-06T05:18:44.069Z,6.78
2018-11-06T05:19:44.120Z,6.65
2018-11-06T05:20:44.049Z,6.69
2018-11-06T05:21:44.040Z,6.64
2018-11-06T05:22:44.041Z,6.55
2018-11-06T05:23:44.024Z,6.65
2018-11-06T05:24:44.029Z,6.64
2018-11-06T05:25:44.001Z,6.55
2018-11-06T05:26:43.980Z,6.46
2018-11-06T05:27:44.113Z,6.48
2018-11-06T05:28:43.997Z,6.53
2018-11-06T05:29:43.948Z,6.55
2018-11-06T05:30:43.936Z,6.55
2018-11-06T05:31:43.924Z,6.76
2018-11-06T05:32:43.996Z,6.75
2018-11-06T05:33:43.944Z,6.76
2018-11-06T05:34:44.022Z,6.64
2018-11-06T05:35:43.880Z,6.68
2018-11-06T05:36:43.873Z,6.64
2018-11-06T05:37:43.856Z,6.65
2018-11-06T05:38:43.954Z,6.69
2018-11-06T05:39:43.859Z,6.68
2018-11-06T05:40:43.825Z,6.69
2018-11-06T05:41:43.811Z,6.61
2018-11-06T05:42:43.825Z,6.72
2018-11-06T05:43:43.876Z,6.69
2018-11-06T05:44:43.794Z,6.57
2018-11-06T05:45:43.888Z,6.68
2018-11-06T05:46:43.766Z,6.53
2018-11-06T05:47:43.751Z,6.55
2018-11-06T05:48:43.775Z,6.69
2018-11-06T05:49:43.761Z,6.58
2018-11-06T05:50:43.714Z,6.83
2018-11-06T05:51:43.705Z,6.68
2018-11-06T05:52:43.699Z,6.68
2018-11-06T05:53:43.733Z,6.71
2018-11-06T05:54:43.686Z,6.72
2018-11-06T05:55:43.703Z,6.60
2018-11-06T05:56:43.727Z,6.63
2018-11-06T05:57:43.652Z,6.63
2018-11-06T05:58:43.626Z,6.68
2018-11-06T05:59:43.614Z,6.69
2018-11-06T06:00:43.668Z,6.63
2018-11-06T06:01:46.680Z,6.65
2018-11-06T06:02:43.620Z,6.72
2018-11-06T06:03:43.566Z,6.69
2018-11-06T06:04:43.570Z,6.54
2018-11-06T06:05:43.681Z,6.53
2018-11-06T06:06:43.561Z,6.53
2018-11-06T06:07:43.536Z,6.48
2018-11-06T06:08:43.542Z,6.48
2018-11-06T06:09:43.515Z,6.68
2018-11-06T06:10:43.543Z,6.57
2018-11-06T06:11:43.527Z,6.63
2018-11-06T06:12:43.551Z,6.61
2018-11-06T06:13:43.469Z,6.58
2018-11-06T06:14:43.471Z,6.60
2018-11-06T06:15:43.471Z,6.60
2018-11-06T06:16:43.483Z,6.60
2018-11-06T06:17:43.471Z,6.53
2018-11-06T06:18:43.427Z,6.53
2018-11-06T06:19:43.422Z,6.40
2018-11-06T06:20:43.402Z,6.54
2018-11-06T06:21:43.376Z,6.69
2018-11-06T06:22:43.440Z,6.78
2018-11-06T06:23:43.367Z,6.99
2018-11-06T06:24:43.370Z,7.08
2018-11-06T06:25:43.361Z,6.93
2018-11-06T06:26:43.335Z,6.97
2018-11-06T06:27:43.353Z,6.99
2018-11-06T06:28:43.316Z,7.07
2018-11-06T06:29:43.291Z,6.90
2018-11-06T06:30:43.276Z,6.81
2018-11-06T06:31:43.265Z,6.93
2018-11-06T06:32:43.310Z,6.86
2018-11-06T06:33:43.263Z,6.93
2018-11-06T06:34:43.404Z,6.78
2018-11-06T06:35:43.225Z,6.76
2018-11-06T06:36:43.215Z,6.73
2018-11-06T06:37:43.249Z,6.82
2018-11-06T06:38:43.301Z,6.81
2018-11-06T06:39:43.186Z,6.81
2018-11-06T06:40:43.219Z,6.90
2018-11-06T06:41:43.159Z,7.01
2018-11-06T06:42:43.192Z,7.01
2018-11-06T06:43:43.218Z,7.00
2018-11-06T06:44:43.129Z,7.09
2018-11-06T06:45:43.119Z,7.12
2018-11-06T06:46:43.171Z,7.16
2018-11-06T06:47:43.091Z,7.15
2018-11-06T06:48:43.081Z,7.11
2018-11-06T06:49:43.069Z,7.14
2018-11-06T06:50:43.075Z,7.19
2018-11-06T06:51:43.094Z,7.27
2018-11-06T06:52:43.188Z,7.23
2018-11-06T06:53:43.038Z,7.34
2018-11-06T06:54:43.094Z,7.47
2018-11-06T06:55:43.013Z,7.41
2018-11-06T06:56:43.011Z,7.45
2018-11-06T06:57:43.017Z,7.47
2018-11-06T06:58:42.977Z,7.44
2018-11-06T06:59:42.969Z,7.37
2018-11-06T07:00:42.968Z,7.24
2018-11-06T07:01:42.991Z,7.36
2018-11-06T07:02:43.072Z,7.36
2018-11-06T07:03:42.919Z,7.23
2018-11-06T07:04:42.930Z,7.34
2018-11-06T07:05:42.899Z,7.37
2018-11-06T07:06:42.901Z,7.37
2018-11-06T07:07:42.918Z,7.57
2018-11-06T07:08:42.890Z,7.55
2018-11-06T07:09:42.850Z,7.60
2018-11-06T07:10:42.852Z,7.54
2018-11-06T07:11:42.828Z,7.48
2018-11-06T07:12:42.861Z,7.48
2018-11-06T07:13:42.813Z,7.50
2018-11-06T07:14:42.835Z,7.55
2018-11-06T07:15:42.788Z,7.55
2018-11-06T07:16:42.787Z,7.63
2018-11-06T07:17:42.802Z,7.70
2018-11-06T07:18:43.352Z,7.71
2018-11-06T07:19:42.788Z,7.77
2018-11-06T07:20:42.736Z,7.73
2018-11-06T07:21:42.740Z,7.88
2018-11-06T07:22:42.704Z,7.73
2018-11-06T07:23:42.694Z,7.77
2018-11-06T07:24:42.725Z,7.71
2018-11-06T07:25:42.694Z,7.67
2018-11-06T07:26:42.924Z,7.70
2018-11-06T07:27:42.656Z,7.85
2018-11-06T07:28:42.682Z,7.67
2018-11-06T07:29:42.666Z,7.79
2018-11-06T07:30:42.639Z,7.74
2018-11-06T07:31:42.611Z,7.74
2018-11-06T07:32:42.606Z,7.77
2018-11-06T07:33:42.607Z,7.86
2018-11-06T07:34:42.792Z,7.96
2018-11-06T07:35:42.804Z,8.02
2018-11-06T07:36:42.564Z,8.12
2018-11-06T07:37:42.549Z,8.02
2018-11-06T07:38:42.531Z,8.13
2018-11-06T07:39:42.522Z,8.09
2018-11-06T07:40:42.572Z,8.20
2018-11-06T07:41:42.515Z,8.29
2018-11-06T07:42:42.486Z,8.39
2018-11-06T07:43:42.483Z,8.40
2018-11-06T07:44:42.464Z,8.52
2018-11-06T07:45:42.506Z,8.46
2018-11-06T07:46:42.468Z,8.55
2018-11-06T07:47:42.439Z,8.65
2018-11-06T07:48:42.432Z,8.63
2018-11-06T07:49:42.423Z,8.75
2018-11-06T07:50:42.440Z,8.83
2018-11-06T07:51:42.403Z,8.75
2018-11-06T07:52:42.374Z,8.88
2018-11-06T07:53:42.414Z,8.82
2018-11-06T07:54:42.363Z,8.83
2018-11-06T07:55:42.470Z,9.08
2018-11-06T07:56:42.346Z,9.24
2018-11-06T07:57:42.319Z,9.19
2018-11-06T07:58:42.336Z,9.34
2018-11-06T07:59:42.353Z,9.45
2018-11-06T08:00:42.335Z,9.32
2018-11-06T08:01:42.338Z,9.27
2018-11-06T08:02:42.275Z,9.10
2018-11-06T08:03:42.261Z,9.08
2018-11-06T08:04:42.268Z,9.03
2018-11-06T08:05:42.245Z,9.12
2018-11-06T08:06:42.260Z,9.19
2018-11-06T08:07:42.215Z,9.30
2018-11-06T08:08:42.216Z,9.55
2018-11-06T08:09:42.223Z,9.62
2018-11-06T08:10:42.183Z,9.93
2018-11-06T08:11:42.214Z,10.14
2018-11-06T08:12:42.177Z,10.20
2018-11-06T08:13:42.149Z,10.36
2018-11-06T08:14:42.286Z,10.25
2018-11-06T08:15:42.124Z,10.31
2018-11-06T08:16:42.150Z,10.39
2018-11-06T08:17:42.116Z,10.42
2018-11-06T08:18:42.100Z,10.42
2018-11-06T08:19:42.086Z,10.49
2018-11-06T08:20:42.274Z,10.66
2018-11-06T08:21:42.097Z,11.16
2018-11-06T08:22:42.074Z,11.36
2018-11-06T08:23:42.091Z,11.77
2018-11-06T08:24:42.031Z,11.87
2018-11-06T08:25:42.016Z,11.75
2018-11-06T08:26:42.011Z,12.07
2018-11-06T08:27:42.122Z,11.98
2018-11-06T08:28:41.996Z,11.78
2018-11-06T08:29:42.016Z,11.70
2018-11-06T08:30:42.215Z,11.87
2018-11-06T08:31:42.425Z,12.43
2018-11-06T08:32:42.429Z,12.92
2018-11-06T08:33:41.928Z,13.10
2018-11-06T08:34:41.961Z,13.04
2018-11-06T08:35:41.919Z,12.99
2018-11-06T08:36:42.006Z,12.73
2018-11-06T08:37:41.895Z,12.12
2018-11-06T08:38:41.879Z,12.55
2018-11-06T08:39:41.904Z,12.73
2018-11-06T08:40:41.887Z,12.84
2018-11-06T08:41:41.867Z,12.61
2018-11-06T08:42:41.823Z,12.34
2018-11-06T08:43:41.819Z,12.07
2018-11-06T08:44:41.855Z,12.25
2018-11-06T08:45:41.805Z,12.59
2018-11-06T08:46:41.826Z,12.89
2018-11-06T08:47:41.780Z,12.89
2018-11-06T08:48:41.780Z,12.84
2018-11-06T08:49:41.757Z,12.94
2018-11-06T08:50:41.749Z,13.32
2018-11-06T08:51:41.777Z,13.50
2018-11-06T08:52:41.734Z,13.57
2018-11-06T08:53:41.713Z,13.88
2018-11-06T08:54:41.850Z,14.30
2018-11-06T08:55:41.682Z,14.67
2018-11-06T08:56:41.716Z,13.88
2018-11-06T08:57:41.667Z,13.90
2018-11-06T08:58:41.658Z,14.11
2018-11-06T08:59:41.645Z,14.01
2018-11-06T09:00:41.649Z,13.48
2018-11-06T09:01:41.656Z,14.01
2018-11-06T09:02:41.661Z,14.31
2018-11-06T09:03:41.608Z,14.30
2018-11-06T09:04:41.609Z,14.02
2018-11-06T09:05:41.576Z,13.93
2018-11-06T09:06:41.627Z,13.63
2018-11-06T09:07:41.570Z,13.61
2018-11-06T09:08:41.559Z,13.48
2018-11-06T09:09:41.552Z,14.06
2018-11-06T09:10:41.540Z,14.29
2018-11-06T09:11:41.554Z,14.66
2018-11-06T09:12:41.518Z,14.83
2018-11-06T09:13:41.497Z,14.78
2018-11-06T09:14:41.480Z,14.63
2018-11-06T09:15:41.466Z,14.94
2018-11-06T09:16:41.502Z,15.25
2018-11-06T09:17:41.464Z,15.37
2018-11-06T09:18:41.442Z,15.52
2018-11-06T09:19:41.417Z,15.07
2018-11-06T09:20:41.456Z,15.19
2018-11-06T09:21:41.411Z,14.34
2018-11-06T09:22:41.401Z,15.11
2018-11-06T09:23:41.378Z,15.76
2018-11-06T09:24:41.362Z,15.92
2018-11-06T09:25:41.403Z,16.16
2018-11-06T09:26:41.355Z,16.33
2018-11-06T09:27:41.336Z,16.51
2018-11-06T09:28:41.342Z,16.66
2018-11-06T09:29:41.314Z,16.60
2018-11-06T09:30:41.333Z,16.72
2018-11-06T09:31:41.292Z,16.73
2018-11-06T09:32:41.328Z,16.65
2018-11-06T09:33:41.274Z,16.11
2018-11-06T09:34:41.268Z,16.40
2018-11-06T09:35:41.245Z,16.37
2018-11-06T09:36:41.238Z,16.30
2018-11-06T09:37:41.262Z,16.32
2018-11-06T09:38:41.243Z,16.10
2018-11-06T09:39:41.251Z,15.80
2018-11-06T09:40:41.193Z,16.08
2018-11-06T09:41:41.180Z,16.30
2018-11-06T09:42:41.219Z,16.42
2018-11-06T09:43:41.168Z,17.03
2018-11-06T09:44:41.166Z,17.39
2018-11-06T09:45:41.135Z,16.99
2018-11-06T09:46:41.124Z,16.75
2018-11-06T09:47:41.151Z,17.12
2018-11-06T09:48:41.131Z,17.21
2018-11-06T09:49:41.100Z,17.07
2018-11-06T09:50:41.079Z,17.18
2018-11-06T09:51:41.065Z,17.18
2018-11-06T09:52:41.123Z,16.84
2018-11-06T09:53:41.052Z,17.57
2018-11-06T09:54:41.037Z,17.76
2018-11-06T09:55:41.046Z,17.15
2018-11-06T09:56:41.011Z,16.23
2018-11-06T09:57:41.203Z,15.92
2018-11-06T09:58:40.998Z,15.86
2018-11-06T09:59:40.985Z,15.80
2018-11-06T10:00:40.971Z,16.45
2018-11-06T10:01:40.972Z,15.76
2018-11-06T10:02:40.950Z,16.55
2018-11-06T10:03:41.122Z,16.80
2018-11-06T10:04:40.937Z,17.02
2018-11-06T10:05:40.961Z,17.46
2018-11-06T10:06:41.084Z,17.62
2018-11-06T10:07:40.925Z,17.33
2018-11-06T10:08:40.875Z,17.17
2018-11-06T10:09:40.882Z,16.96
2018-11-06T10:10:40.887Z,16.60
2018-11-06T10:11:40.872Z,16.27
2018-11-06T10:12:40.840Z,17.03
2018-11-06T10:13:40.827Z,16.87
2018-11-06T10:14:40.814Z,16.51
2018-11-06T10:15:40.870Z,16.63
2018-11-06T10:16:40.804Z,16.36
2018-11-06T10:17:40.780Z,16.69
2018-11-06T10:18:40.770Z,16.42
2018-11-06T10:19:40.772Z,16.29
2018-11-06T10:20:40.802Z,16.59
2018-11-06T10:21:40.781Z,16.90
2018-11-06T10:22:40.728Z,17.22
2018-11-06T10:23:40.723Z,17.42
2018-11-06T10:24:40.703Z,17.00
2018-11-06T10:25:40.727Z,16.54
2018-11-06T10:26:40.686Z,16.90
2018-11-06T10:27:40.711Z,16.70
2018-11-06T10:28:40.660Z,16.32
2018-11-06T10:29:40.648Z,16.32
2018-11-06T10:30:40.722Z,16.01
2018-11-06T10:31:40.629Z,15.84
2018-11-06T10:32:40.614Z,15.86
2018-11-06T10:33:40.620Z,16.48
2018-11-06T10:34:40.590Z,16.60
2018-11-06T10:35:40.616Z,15.76
2018-11-06T10:36:40.579Z,16.03
2018-11-06T10:37:40.557Z,16.47
2018-11-06T10:38:40.557Z,16.50
2018-11-06T10:39:40.540Z,15.96
2018-11-06T10:40:40.558Z,15.53
2018-11-06T10:41:40.524Z,16.07
2018-11-06T10:42:40.502Z,16.63
2018-11-06T10:43:40.505Z,16.78
2018-11-06T10:44:40.480Z,16.70
2018-11-06T10:45:40.507Z,16.16
2018-11-06T10:46:40.519Z,16.54
2018-11-06T10:47:40.473Z,16.48
2018-11-06T10:48:40.441Z,16.70
2018-11-06T10:49:40.431Z,16.99
2018-11-06T10:50:40.481Z,16.98
2018-11-06T10:51:40.483Z,16.63
2018-11-06T10:52:40.391Z,16.07
2018-11-06T10:53:40.407Z,15.86
2018-11-06T10:54:40.379Z,15.80
2018-11-06T10:55:40.425Z,15.67
2018-11-06T10:56:40.355Z,15.73
2018-11-06T10:57:40.335Z,15.58
2018-11-06T10:58:40.345Z,15.64
2018-11-06T10:59:40.319Z,15.55
2018-11-06T11:00:40.351Z,15.25
2018-11-06T11:01:40.331Z,14.97
2018-11-06T11:02:40.335Z,14.95
2018-11-06T11:03:40.273Z,15.09
2018-11-06T11:04:40.290Z,15.25
2018-11-06T11:05:40.282Z,15.07
2018-11-06T11:06:40.285Z,14.97
2018-11-06T11:07:40.240Z,15.15
2018-11-06T11:08:40.239Z,15.33
2018-11-06T11:09:40.225Z,15.30
2018-11-06T11:10:40.237Z,15.09
2018-11-06T11:11:40.191Z,14.93
2018-11-06T11:12:40.315Z,15.27
2018-11-06T11:13:40.175Z,15.00
2018-11-06T11:14:40.176Z,14.90
2018-11-06T11:15:40.180Z,14.93
2018-11-06T11:16:40.134Z,14.87
2018-11-06T11:17:40.125Z,14.85
2018-11-06T11:18:40.099Z,14.98
2018-11-06T11:19:40.093Z,15.09
2018-11-06T11:20:40.126Z,15.12
2018-11-06T11:21:40.143Z,15.25
2018-11-06T11:22:40.103Z,15.20
2018-11-06T11:23:40.050Z,15.05
2018-11-06T11:24:40.035Z,15.27
2018-11-06T11:25:40.101Z,15.40
2018-11-06T11:26:40.042Z,15.53
2018-11-06T11:27:40.008Z,15.40
2018-11-06T11:28:40.002Z,15.58
2018-11-06T11:29:39.994Z,15.81
2018-11-06T11:30:40.008Z,15.77
2018-11-06T11:31:39.966Z,16.13
2018-11-06T11:32:40.001Z,16.34
2018-11-06T11:33:39.940Z,16.07
2018-11-06T11:34:39.929Z,15.81
2018-11-06T11:35:39.936Z,15.80
2018-11-06T11:36:39.955Z,15.74
2018-11-06T11:37:39.959Z,16.27
2018-11-06T11:38:39.889Z,16.33
2018-11-06T11:39:39.879Z,16.25
2018-11-06T11:40:39.873Z,15.76
2018-11-06T11:41:39.892Z,15.76
2018-11-06T11:42:39.857Z,16.08
2018-11-06T11:43:39.841Z,16.23
2018-11-06T11:44:39.837Z,15.93
2018-11-06T11:45:39.847Z,16.18
2018-11-06T11:46:39.835Z,16.73
2018-11-06T11:47:39.790Z,16.70
2018-11-06T11:48:39.794Z,17.18
2018-11-06T11:49:39.767Z,17.36
2018-11-06T11:50:39.768Z,16.72
2018-11-06T11:51:39.776Z,15.95
2018-11-06T11:52:39.732Z,15.91
2018-11-06T11:53:39.712Z,15.73
2018-11-06T11:54:39.714Z,15.73
2018-11-06T11:55:39.694Z,15.85
2018-11-06T11:56:39.711Z,16.36
2018-11-06T11:57:39.707Z,15.81
2018-11-06T11:58:39.674Z,15.04
2018-11-06T11:59:39.650Z,15.09
2018-11-06T12:00:39.637Z,15.33
2018-11-06T12:01:39.664Z,15.25
2018-11-06T12:02:39.630Z,15.30
2018-11-06T12:03:39.616Z,15.81
2018-11-06T12:04:39.616Z,16.59
2018-11-06T12:05:39.594Z,17.03
2018-11-06T12:06:39.617Z,16.45
2018-11-06T12:07:39.586Z,15.80
2018-11-06T12:08:39.550Z,15.35
2018-11-06T12:09:39.544Z,16.33
2018-11-06T12:10:39.525Z,16.11
2018-11-06T12:11:39.579Z,15.91
2018-11-06T12:12:39.513Z,15.93
2018-11-06T12:13:39.512Z,15.81
2018-11-06T12:14:39.487Z,16.34
2018-11-06T12:15:39.472Z,16.18
2018-11-06T12:16:39.492Z,16.11
2018-11-06T12:17:39.470Z,15.76
2018-11-06T12:18:39.436Z,15.81
2018-11-06T12:19:39.440Z,16.22
2018-11-06T12:20:39.421Z,16.22
2018-11-06T12:21:39.442Z,16.47
2018-11-06T12:22:39.413Z,16.67
2018-11-06T12:23:39.376Z,16.18
2018-11-06T12:24:39.466Z,16.47
2018-11-06T12:25:39.571Z,16.47
2018-11-06T12:26:39.395Z,16.34
2018-11-06T12:27:39.350Z,15.56
2018-11-06T12:28:39.365Z,15.56
2018-11-06T12:29:39.312Z,15.56
2018-11-06T12:30:39.308Z,15.59
2018-11-06T12:31:39.305Z,15.78
2018-11-06T12:32:39.374Z,16.01
2018-11-06T12:33:39.309Z,16.22
2018-11-06T12:34:39.272Z,16.41
2018-11-06T12:35:39.248Z,16.59
2018-11-06T12:36:39.319Z,16.73
2018-11-06T12:37:39.275Z,16.30
2018-11-06T12:38:39.210Z,16.57
2018-11-06T12:39:39.207Z,16.75
2018-11-06T12:40:39.197Z,16.69
2018-11-06T12:41:39.180Z,16.78
2018-11-06T12:42:39.228Z,16.69
2018-11-06T12:43:39.184Z,16.82
2018-11-06T12:44:39.149Z,16.80
2018-11-06T12:45:39.149Z,16.90
2018-11-06T12:46:39.131Z,16.91
2018-11-06T12:47:39.144Z,16.80
2018-11-06T12:48:39.104Z,16.69
2018-11-06T12:49:39.111Z,16.54
2018-11-06T12:50:39.084Z,16.57
2018-11-06T12:51:39.066Z,16.81
2018-11-06T12:52:39.108Z,17.03
2018-11-06T12:53:39.075Z,16.30
2018-11-06T12:54:39.041Z,15.84
2018-11-06T12:55:39.029Z,15.73
2018-11-06T12:56:39.029Z,15.73
2018-11-06T12:57:39.032Z,15.66
2018-11-06T12:58:39.002Z,15.43
2018-11-06T12:59:39.000Z,15.09
2018-11-06T13:00:38.965Z,14.71
2018-11-06T13:01:38.974Z,14.48
2018-11-06T13:02:38.966Z,14.45
2018-11-06T13:03:38.991Z,14.36
2018-11-06T13:04:38.985Z,14.42
2018-11-06T13:05:38.957Z,14.30
2018-11-06T13:06:38.923Z,14.11
2018-11-06T13:07:38.904Z,13.98
2018-11-06T13:08:38.888Z,13.94